Flight Track Log - Related Links

Times and Time Zones

All times are in EDT time to prevent confusion due to time zone crossing. See the DAL6197 flight status page for this flight to view local times or setup timezone preferences in your user account.

Time Position Orientation Groundspeed Altitude Reporting Facility
EDT Latitude Longitude Course Direction KTS MPH feet Rate Location/Type
Fri 10:43:21 PM 40.8333 -73.9167 270° West 201 231 2,500  Level New York TRACON
Fri 10:44:27 PM 40.9000 -73.9500 339° North 238 274 5,300 2,429 Climbing New York TRACON
Fri 10:45:27 PM 40.9333 -74.0333 298° West 260 299 7,600 2,550 Climbing New York TRACON
Fri 10:46:27 PM 40.9000 -74.1333 246° West 270 311 10,400 2,200 Climbing New York TRACON
Fri 10:47:27 PM 40.8833 -74.2333 258° West 300 345 12,000 1,947 Climbing New York TRACON
Fri 10:48:00 PM 40.7000 -74.7180 270° West  Level FlightAware Approximate
Fri 10:48:21 PM 40.9000 -74.3167 285° West 303 349 14,100  Level New York TRACON
Fri 10:50:10 PM 40.9225 -74.5306 278° West 313 360 17,000 1,030 Climbing New York Center
Fri 10:51:10 PM 40.9358 -74.6331 280° West 318 366 17,000  Level New York Center
Fri 10:52:12 PM 40.9528 -74.7547 280° West 318 366 17,000  Level New York Center
Fri 10:53:12 PM 40.9658 -74.8572 280° West 318 366 17,000  Level New York Center
Fri 10:54:10 PM 40.9208 -74.9533 238° Southwest 298 343 17,000 356 Level New York Center
Fri 10:55:10 PM 40.8483 -75.0558 227° Southwest 344 396 17,700 1,109 Climbing New York Center
Fri 10:56:09 PM 40.7961 -75.1733 240° Southwest 376 433 19,200 1,900 Climbing New York Center
Fri 10:57:10 PM 40.7742 -75.3117 258° West 376 433 21,500 1,854 Climbing New York Center
Fri 10:58:12 PM 40.7503 -75.4469 257° West 376 433 23,000 1,613 Climbing New York Center
Fri 10:59:09 PM 40.7325 -75.5800 260° West 382 440 24,700 1,361 Climbing New York Center
Fri 11:00:11 PM 40.7475 -75.7208 278° West 376 433 25,700 885 Climbing New York Center
Fri 11:01:11 PM 40.7619 -75.8725 277° West 396 456 26,500 793 Climbing New York Center
Fri 11:02:12 PM 40.7739 -76.0269 276° West 421 484 27,300 807 Climbing New York Center
Fri 11:03:10 PM 40.7683 -76.1497 267° West 426 490 28,100 915 Climbing New York Center
Fri 11:04:10 PM 40.7294 -76.3164 253° West 426 490 29,100 1,000 Climbing New York Center
Fri 11:05:10 PM 40.6928 -76.4697 253° West 431 496 30,100 942 Climbing New York Center
Fri 11:06:11 PM 40.6561 -76.6253 253° West 436 502 31,000 885 Climbing New York Center
Fri 11:07:12 PM 40.6214 -76.7756 253° West 436 502 31,900 744 Climbing New York Center
Fri 11:08:12 PM 40.5844 -76.9281 252° West 436 502 32,500 700 Climbing New York Center
Fri 11:09:12 PM 40.5614 -77.0872 259° West 441 507 33,300 915 Climbing New York Center
Fri 11:10:10 PM 40.5819 -77.2475 280° West 441 507 34,300 1,077 Climbing New York Center
Fri 11:11:09 PM 40.6061 -77.4139 281° West 433 498 35,400 1,011 Climbing New York Center
Fri 11:13:20 PM 40.6364 -77.7456 277° West 427 491 37,500 817 Climbing Cleveland Center
Fri 11:14:20 PM 40.6003 -77.8894 252° West 409 471 38,000 250 Climbing Cleveland Center
Fri 11:15:20 PM 40.5578 -78.0361 249° West 414 476 38,000  Level Cleveland Center
Fri 11:16:20 PM 40.5192 -78.1794 251° West 427 491 38,000  Level Cleveland Center
Fri 11:17:20 PM 40.4783 -78.3231 250° West 432 497 38,000  Level Cleveland Center
Fri 11:18:20 PM 40.4372 -78.4661 249° West 432 497 38,000  Level Cleveland Center
Fri 11:19:20 PM 40.3981 -78.6064 250° West 427 491 38,000  Level Cleveland Center
Fri 11:20:20 PM 40.3608 -78.7467 251° West 422 486 38,000  Level Cleveland Center
Fri 11:21:20 PM 40.3233 -78.8839 250° West 412 474 38,000  Level Cleveland Center
Fri 11:22:20 PM 40.2858 -79.0236 251° West 412 474 38,000  Level Cleveland Center
Fri 11:23:20 PM 40.2458 -79.1633 249° West 412 474 38,000  Level Cleveland Center
Fri 11:24:20 PM 40.2058 -79.3028 249° West 412 474 38,000  Level Cleveland Center
Fri 11:25:20 PM 40.1700 -79.4419 251° West 412 474 38,000  Level Cleveland Center
Fri 11:26:20 PM 40.1317 -79.5839 251° West 412 474 38,000  Level Cleveland Center
Fri 11:27:20 PM 40.0972 -79.7064 250° West 412 474 38,000  Level Cleveland Center
Fri 11:28:20 PM 40.0586 -79.8481 250° West 412 474 38,000  Level Cleveland Center
Fri 11:29:20 PM 40.0156 -79.9867 248° West 412 474 38,000  Level Cleveland Center
Fri 11:30:20 PM 39.9725 -80.1253 248° West 412 474 38,000  Level Cleveland Center
Fri 11:31:20 PM 39.9292 -80.2608 247° West 412 474 38,000  Level Cleveland Center
Fri 11:32:20 PM 39.8878 -80.3992 249° West 412 474 38,000  Level Cleveland Center
Fri 11:33:20 PM 39.8442 -80.5372 248° West 412 474 38,000  Level Cleveland Center
Fri 11:34:06 PM 39.8075 -80.6442 246° West 409 471 38,000  Level Indianapolis Center
Fri 11:35:07 PM 39.7650 -80.7814 248° West 410 472 38,000  Level Indianapolis Center
Fri 11:36:08 PM 39.7206 -80.9178 247° West 411 473 38,000  Level Indianapolis Center
Fri 11:37:09 PM 39.6772 -81.0539 248° West 410 472 38,000  Level Indianapolis Center
Fri 11:38:10 PM 39.6328 -81.1917 247° West 413 475 38,000  Level Indianapolis Center
Fri 11:39:11 PM 39.5869 -81.3328 247° West 424 488 38,000  Level Indianapolis Center
Fri 11:40:11 PM 39.5314 -81.5050 247° West 434 499 38,000  Level Indianapolis Center
Fri 11:41:12 PM 39.4847 -81.6475 247° West 434 499 38,000  Level Indianapolis Center
Fri 11:42:13 PM 39.4367 -81.7933 247° West 442 509 38,000  Level Indianapolis Center
Fri 11:43:14 PM 39.3886 -81.9378 247° West 441 507 38,000  Level Indianapolis Center
Fri 11:44:15 PM 39.3403 -82.0822 247° West 440 506 38,000  Level Indianapolis Center
Fri 11:45:16 PM 39.2925 -82.2264 247° West 438 504 38,000  Level Indianapolis Center
Fri 11:46:17 PM 39.2456 -82.3678 247° West 434 499 38,000  Level Indianapolis Center
Fri 11:47:18 PM 39.1947 -82.5158 246° West 437 503 38,000  Level Indianapolis Center
Fri 11:48:19 PM 39.1500 -82.6506 247° West 430 495 38,000  Level Indianapolis Center
Fri 11:49:20 PM 39.1017 -82.7922 246° West 434 499 38,000  Level Indianapolis Center
Fri 11:50:21 PM 39.0531 -82.9328 246° West 433 498 38,000  Level Indianapolis Center
Fri 11:51:22 PM 39.0042 -83.0756 246° West 437 503 38,000  Level Indianapolis Center
Fri 11:52:23 PM 38.9494 -83.2333 246° West 436 502 38,000  Level Indianapolis Center
Fri 11:53:24 PM 38.8992 -83.3769 246° West 437 503 38,000  Level Indianapolis Center
Fri 11:54:25 PM 38.8497 -83.5200 246° West 436 502 38,000  Level Indianapolis Center
Fri 11:55:25 PM 38.7978 -83.6614 245° Southwest 436 502 38,000  Level Indianapolis Center
Fri 11:56:26 PM 38.7208 -83.7808 230° Southwest 433 498 38,000  Level Indianapolis Center
Fri 11:57:27 PM 38.6342 -83.8867 224° Southwest 435 501 38,000  Level Indianapolis Center
Fri 11:58:28 PM 38.5483 -83.9911 224° Southwest 431 496 38,000  Level Indianapolis Center
Fri 11:59:29 PM 38.4447 -84.1161 223° Southwest 437 503 38,000  Level Indianapolis Center
Sat 12:00:30 AM 38.3561 -84.2211 223° Southwest 436 502 38,000  Level Indianapolis Center
Sat 12:01:31 AM 38.2683 -84.3261 223° Southwest 434 499 38,000  Level Indianapolis Center
Sat 12:02:31 AM 38.1803 -84.4319 223° Southwest 435 501 38,000  Level Indianapolis Center
Sat 12:03:32 AM 38.0917 -84.5369 223° Southwest 434 499 38,000  Level Indianapolis Center
Sat 12:04:33 AM 38.0039 -84.6408 223° Southwest 433 498 38,000  Level Indianapolis Center
Sat 12:05:34 AM 37.9144 -84.7469 223° Southwest 438 504 38,000  Level Indianapolis Center
Sat 12:06:35 AM 37.8244 -84.8533 223° Southwest 442 509 38,000 -393 Level Indianapolis Center
Sat 12:07:36 AM 37.7347 -84.9589 223° Southwest 441 507 37,200 -1,438 Descending Indianapolis Center
Sat 12:08:36 AM 37.6425 -85.0661 223° Southwest 449 517 35,100 -2,132 Descending Indianapolis Center
Sat 12:09:37 AM 37.5494 -85.1742 223° Southwest 453 521 32,900 -2,164 Descending Indianapolis Center
Sat 12:10:38 AM 37.4550 -85.2822 222° Southwest 457 526 30,700 -2,164 Descending Indianapolis Center
Sat 12:11:39 AM 37.3644 -85.3872 223° Southwest 444 511 28,500 -2,361 Descending Indianapolis Center
Sat 12:12:40 AM 37.2603 -85.5089 223° Southwest 440 506 25,900 -2,311 Descending Indianapolis Center
Sat 12:13:41 AM 37.1764 -85.6039 222° Southwest 434 499 23,800 -2,132 Descending Indianapolis Center
Sat 12:14:41 AM 37.0875 -85.6986 220° Southwest 419 482 21,600 -2,182 Descending Indianapolis Center
Sat 12:15:42 AM 36.9983 -85.7928 220° Southwest 414 476 19,400 -2,164 Descending Indianapolis Center
Sat 12:16:43 AM 36.9117 -85.8814 219° Southwest 402 463 17,200 -2,164 Descending Indianapolis Center
Sat 12:17:44 AM 36.8300 -85.9681 220° Southwest 387 445 15,000 -2,231 Descending Indianapolis Center
Sat 12:18:44 AM 36.7519 -86.0492 220° Southwest 368 423 12,700 -1,905 Descending Indianapolis Center
Sat 12:19:50 AM 36.6664 -86.1406 221° Southwest 366 421 11,000 -810 Descending Memphis Center
Sat 12:20:50 AM 36.6019 -86.2058 219° Southwest 357 411 11,000  Level Memphis Center
Sat 12:21:50 AM 36.5292 -86.2794 219° Southwest 346 398 11,000  Level Memphis Center
Sat 12:22:50 AM 36.4675 -86.3625 227° Southwest 341 392 11,000 -600 Level Memphis Center
Sat 12:23:50 AM 36.4264 -86.4469 239° Southwest 312 359 9,800 -1,650 Descending Memphis Center
Sat 12:24:50 AM 36.3869 -86.5236 237° Southwest 275 316 7,700 -2,200 Descending Memphis Center
Sat 12:25:50 AM 36.3372 -86.5981 230° Southwest 261 300 5,400 -1,900 Descending Memphis Center
Sat 12:26:50 AM 36.2753 -86.6242 199° South 245 282 3,900 -1,500 Descending Memphis Center
Sat 12:27:50 AM 36.2258 -86.6444 198° South 216 249 2,400 -1,150 Descending Memphis Center
Sat 12:28:50 AM 36.1867 -86.6592 197° South 170 196 1,600 -700 Descending Memphis Center
Sat 12:29:50 AM 36.1517 -86.6736 198° South 140 161 1,000 -450 Descending Memphis Center
Sat 12:30:50 AM 36.1189 -86.6853 196° South 140 161 700 5,000 Descending Memphis Center
Sat 12:31:50 AM 36.0836 -86.6997 198° South 140 161 11,000 10,300 Climbing Memphis Center
Sat 12:33:00 AM 36.1167 -86.6667 287° West  Level FlightAware Approximate
Sat 12:40:00 AM 36.1245 -86.6782 287° West  Level Estimated
Sat 12:41:00 AM 36.1245 -86.6782 287° West  Level Estimated
Sat 12:42:00 AM 36.1245 -86.6782 287° West  Level Estimated
Sat 12:43:00 AM 36.1245 -86.6782 287° West  Level Estimated
Sat 12:44:00 AM 36.1245 -86.6782 287° West  Level Estimated
Sat 12:45:00 AM 36.1245 -86.6782 287° West  Level Estimated
Sat 12:46:00 AM 36.1245 -86.6782 287° West  Level Estimated
Sat 12:47:00 AM 36.1245 -86.6782 287° West  Level Estimated
Sat 12:48:00 AM 36.1245 -86.6782 287° West  Level Estimated
Sat 12:49:00 AM 36.1245 -86.6782 287° West  Level Estimated

Login

Don't have an account? Register now (free) for customized features, flight alerts, and more!